sensor_id;sensor_type;location;lat;lon;timestamp;pressure;altitude;pressure_sealevel;temperature;humidity
45939;BME280;31650;48.818;9.116;2023-07-24T00:14:23;97380.22;;;16.78;100.00
45939;BME280;31650;48.818;9.116;2023-07-24T00:29:23;97365.38;;;16.49;100.00
45939;BME280;31650;48.818;9.116;2023-07-24T00:44:23;97347.25;;;16.22;100.00
45939;BME280;31650;48.818;9.116;2023-07-24T00:59:24;97309.91;;;15.95;100.00
45939;BME280;31650;48.818;9.116;2023-07-24T01:14:29;97283.31;;;15.91;100.00
45939;BME280;31650;48.818;9.116;2023-07-24T01:29:32;97253.69;;;15.77;100.00
45939;BME280;31650;48.818;9.116;2023-07-24T01:44:33;97262.19;;;15.81;100.00
45939;BME280;31650;48.818;9.116;2023-07-24T01:59:33;97262.97;;;15.66;100.00
45939;BME280;31650;48.818;9.116;2023-07-24T02:14:33;97259.66;;;15.64;100.00
45939;BME280;31650;48.818;9.116;2023-07-24T02:29:33;97234.78;;;15.91;100.00
45939;BME280;31650;48.818;9.116;2023-07-24T02:44:34;97184.91;;;16.25;100.00
45939;BME280;31650;48.818;9.116;2023-07-24T02:59:34;97130.50;;;16.63;100.00
45939;BME280;31650;48.818;9.116;2023-07-24T03:14:35;97123.19;;;16.28;100.00
45939;BME280;31650;48.818;9.116;2023-07-24T03:29:35;97149.28;;;15.79;100.00
45939;BME280;31650;48.818;9.116;2023-07-24T03:44:37;97145.16;;;15.61;100.00
45939;BME280;31650;48.818;9.116;2023-07-24T03:59:37;97158.28;;;15.69;100.00
45939;BME280;31650;48.818;9.116;2023-07-24T04:14:37;97164.91;;;15.94;100.00
45939;BME280;31650;48.818;9.116;2023-07-24T04:29:38;97124.81;;;16.39;100.00
45939;BME280;31650;48.818;9.116;2023-07-24T04:44:41;97091.91;;;17.04;100.00
45939;BME280;31650;48.818;9.116;2023-07-24T04:59:42;97094.97;;;17.42;100.00
45939;BME280;31650;48.818;9.116;2023-07-24T05:14:42;97085.75;;;17.62;100.00
45939;BME280;31650;48.818;9.116;2023-07-24T05:29:42;97085.50;;;17.93;100.00
45939;BME280;31650;48.818;9.116;2023-07-24T05:44:43;97129.41;;;18.03;100.00
45939;BME280;31650;48.818;9.116;2023-07-24T05:59:43;97130.03;;;18.24;100.00
45939;BME280;31650;48.818;9.116;2023-07-24T06:14:44;97099.94;;;18.57;100.00
45939;BME280;31650;48.818;9.116;2023-07-24T06:29:44;97053.47;;;19.36;98.05
45939;BME280;31650;48.818;9.116;2023-07-24T06:44:44;97033.19;;;20.11;90.24
45939;BME280;31650;48.818;9.116;2023-07-24T06:59:44;97020.94;;;20.45;81.10
45939;BME280;31650;48.818;9.116;2023-07-24T07:14:45;97008.78;;;20.74;82.04
45939;BME280;31650;48.818;9.116;2023-07-24T07:29:45;97056.91;;;20.95;79.50
45939;BME280;31650;48.818;9.116;2023-07-24T07:44:45;97085.63;;;21.08;81.39
45939;BME280;31650;48.818;9.116;2023-07-24T07:59:46;97120.34;;;21.00;82.68
45939;BME280;31650;48.818;9.116;2023-07-24T08:14:46;97158.78;;;20.09;100.00
45939;BME280;31650;48.818;9.116;2023-07-24T08:29:46;97199.47;;;18.40;100.00
45939;BME280;31650;48.818;9.116;2023-07-24T08:44:50;97167.13;;;18.56;100.00
45939;BME280;31650;48.818;9.116;2023-07-24T08:59:51;97147.91;;;19.23;100.00
45939;BME280;31650;48.818;9.116;2023-07-24T09:15:04;97173.06;;;20.43;100.00
45939;BME280;31650;48.818;9.116;2023-07-24T09:30:11;97110.91;;;21.01;100.00
45939;BME280;31650;48.818;9.116;2023-07-24T09:45:12;97097.84;;;21.07;100.00
45939;BME280;31650;48.818;9.116;2023-07-24T10:00:13;97127.19;;;20.89;100.00
45939;BME280;31650;48.818;9.116;2023-07-24T10:15:13;97163.66;;;20.45;100.00
45939;BME280;31650;48.818;9.116;2023-07-24T10:30:14;97201.00;;;19.90;100.00
45939;BME280;31650;48.818;9.116;2023-07-24T10:45:14;97250.94;;;19.22;100.00
45939;BME280;31650;48.818;9.116;2023-07-24T11:00:14;97309.81;;;18.43;100.00
45939;BME280;31650;48.818;9.116;2023-07-24T11:15:15;97219.03;;;18.09;100.00
45939;BME280;31650;48.818;9.116;2023-07-24T11:30:19;97143.16;;;18.03;100.00
45939;BME280;31650;48.818;9.116;2023-07-24T11:45:20;97100.56;;;19.91;100.00
45939;BME280;31650;48.818;9.116;2023-07-24T12:00:21;97087.66;;;20.66;100.00
45939;BME280;31650;48.818;9.116;2023-07-24T12:15:23;97134.59;;;19.87;100.00
45939;BME280;31650;48.818;9.116;2023-07-24T12:30:23;97134.63;;;19.68;100.00
45939;BME280;31650;48.818;9.116;2023-07-24T12:45:23;97124.22;;;19.78;100.00
45939;BME280;31650;48.818;9.116;2023-07-24T13:00:24;97038.25;;;21.15;100.00
45939;BME280;31650;48.818;9.116;2023-07-24T13:15:25;97021.44;;;22.24;100.00
45939;BME280;31650;48.818;9.116;2023-07-24T13:30:26;96950.59;;;24.06;92.07
45939;BME280;31650;48.818;9.116;2023-07-24T13:45:26;96912.44;;;24.53;86.61
45939;BME280;31650;48.818;9.116;2023-07-24T14:00:27;96851.09;;;25.91;67.77
45939;BME280;31650;48.818;9.116;2023-07-24T14:15:27;96849.06;;;27.50;58.76
45939;BME280;31650;48.818;9.116;2023-07-24T14:30:28;96856.34;;;26.83;58.23
45939;BME280;31650;48.818;9.116;2023-07-24T14:45:28;96839.06;;;26.52;56.94
45939;BME280;31650;48.818;9.116;2023-07-24T15:00:30;96817.78;;;25.58;59.26
45939;BME280;31650;48.818;9.116;2023-07-24T15:15:30;96829.38;;;25.72;59.58
45939;BME280;31650;48.818;9.116;2023-07-24T15:30:31;96863.25;;;24.24;64.52
45939;BME280;31650;48.818;9.116;2023-07-24T15:45:33;96868.78;;;23.65;67.79
45939;BME280;31650;48.818;9.116;2023-07-24T16:00:33;96851.25;;;23.81;68.89
45939;BME280;31650;48.818;9.116;2023-07-24T16:15:33;96874.63;;;22.90;85.58
45939;BME280;31650;48.818;9.116;2023-07-24T16:30:34;96966.59;;;20.82;100.00
45939;BME280;31650;48.818;9.116;2023-07-24T16:45:35;96951.06;;;19.15;100.00
45939;BME280;31650;48.818;9.116;2023-07-24T17:00:35;97100.44;;;17.81;100.00
45939;BME280;31650;48.818;9.116;2023-07-24T17:15:36;97118.28;;;18.42;100.00
45939;BME280;31650;48.818;9.116;2023-07-24T17:30:36;97113.78;;;18.76;100.00
45939;BME280;31650;48.818;9.116;2023-07-24T17:45:38;97076.41;;;19.50;100.00
45939;BME280;31650;48.818;9.116;2023-07-24T18:00:38;97043.50;;;19.40;100.00
45939;BME280;31650;48.818;9.116;2023-07-24T18:15:42;97085.22;;;18.96;100.00
45939;BME280;31650;48.818;9.116;2023-07-24T18:30:42;97098.16;;;18.47;100.00
45939;BME280;31650;48.818;9.116;2023-07-24T18:45:43;97117.31;;;18.04;100.00
45939;BME280;31650;48.818;9.116;2023-07-24T19:00:43;97128.69;;;17.53;100.00
45939;BME280;31650;48.818;9.116;2023-07-24T19:15:43;97136.09;;;17.08;100.00
45939;BME280;31650;48.818;9.116;2023-07-24T19:30:44;97134.88;;;16.69;100.00
45939;BME280;31650;48.818;9.116;2023-07-24T19:45:50;97125.91;;;16.33;100.00
45939;BME280;31650;48.818;9.116;2023-07-24T20:00:51;97164.84;;;15.63;100.00
45939;BME280;31650;48.818;9.116;2023-07-24T20:15:52;97180.69;;;15.25;100.00
45939;BME280;31650;48.818;9.116;2023-07-24T20:30:52;97185.00;;;15.06;100.00
45939;BME280;31650;48.818;9.116;2023-07-24T20:45:53;97201.13;;;14.97;100.00
45939;BME280;31650;48.818;9.116;2023-07-24T21:00:53;97191.47;;;14.79;100.00
45939;BME280;31650;48.818;9.116;2023-07-24T21:15:53;97198.00;;;14.78;100.00
45939;BME280;31650;48.818;9.116;2023-07-24T21:30:54;97209.88;;;14.52;100.00
45939;BME280;31650;48.818;9.116;2023-07-24T21:45:54;97209.69;;;14.63;100.00
45939;BME280;31650;48.818;9.116;2023-07-24T22:00:55;97202.47;;;14.52;100.00
45939;BME280;31650;48.818;9.116;2023-07-24T22:15:55;97185.63;;;14.60;100.00
45939;BME280;31650;48.818;9.116;2023-07-24T22:30:55;97170.88;;;15.40;100.00
45939;BME280;31650;48.818;9.116;2023-07-24T22:45:56;97164.28;;;15.30;100.00
45939;BME280;31650;48.818;9.116;2023-07-24T23:00:56;97164.84;;;15.43;100.00
45939;BME280;31650;48.818;9.116;2023-07-24T23:15:58;97174.16;;;15.52;100.00
45939;BME280;31650;48.818;9.116;2023-07-24T23:31:05;97146.22;;;15.50;100.00
45939;BME280;31650;48.818;9.116;2023-07-24T23:46:09;97135.78;;;15.37;100.00
